sensor_id;sensor_type;location;lat;lon;timestamp;P1;durP1;ratioP1;P2;durP2;ratioP2
78686;SDS011;68002;52.310;6.990;2023-02-25T00:01:01;6.93;;;1.97;;
78686;SDS011;68002;52.310;6.990;2023-02-25T00:03:30;9.55;;;2.10;;
78686;SDS011;68002;52.310;6.990;2023-02-25T00:05:56;8.32;;;2.30;;
78686;SDS011;68002;52.310;6.990;2023-02-25T00:08:21;6.27;;;1.97;;
78686;SDS011;68002;52.310;6.990;2023-02-25T00:10:54;12.47;;;2.07;;
78686;SDS011;68002;52.310;6.990;2023-02-25T00:13:20;8.27;;;3.10;;
78686;SDS011;68002;52.310;6.990;2023-02-25T00:15:46;14.70;;;5.70;;
78686;SDS011;68002;52.310;6.990;2023-02-25T00:18:11;8.00;;;2.17;;
78686;SDS011;68002;52.310;6.990;2023-02-25T00:20:38;8.90;;;2.33;;
78686;SDS011;68002;52.310;6.990;2023-02-25T00:23:03;10.10;;;1.42;;
78686;SDS011;68002;52.310;6.990;2023-02-25T00:25:28;7.80;;;1.90;;
78686;SDS011;68002;52.310;6.990;2023-02-25T00:27:54;11.07;;;2.97;;
78686;SDS011;68002;52.310;6.990;2023-02-25T00:30:19;7.60;;;3.00;;
78686;SDS011;68002;52.310;6.990;2023-02-25T00:32:44;13.20;;;3.03;;
78686;SDS011;68002;52.310;6.990;2023-02-25T00:35:09;7.97;;;2.53;;
78686;SDS011;68002;52.310;6.990;2023-02-25T00:37:35;9.13;;;2.73;;
78686;SDS011;68002;52.310;6.990;2023-02-25T00:40:00;10.53;;;2.20;;
78686;SDS011;68002;52.310;6.990;2023-02-25T00:42:25;8.77;;;2.37;;
78686;SDS011;68002;52.310;6.990;2023-02-25T00:44:50;6.50;;;3.17;;
78686;SDS011;68002;52.310;6.990;2023-02-25T00:47:16;7.90;;;2.30;;
78686;SDS011;68002;52.310;6.990;2023-02-25T00:49:46;12.65;;;2.17;;
78686;SDS011;68002;52.310;6.990;2023-02-25T00:52:12;9.85;;;2.17;;
78686;SDS011;68002;52.310;6.990;2023-02-25T00:54:38;7.80;;;1.50;;
78686;SDS011;68002;52.310;6.990;2023-02-25T00:57:03;10.00;;;2.03;;
78686;SDS011;68002;52.310;6.990;2023-02-25T00:59:28;8.40;;;1.90;;
78686;SDS011;68002;52.310;6.990;2023-02-25T01:01:53;6.67;;;1.83;;
78686;SDS011;68002;52.310;6.990;2023-02-25T01:04:18;11.83;;;2.53;;
78686;SDS011;68002;52.310;6.990;2023-02-25T01:06:44;7.85;;;2.13;;
78686;SDS011;68002;52.310;6.990;2023-02-25T01:09:10;10.27;;;2.20;;
78686;SDS011;68002;52.310;6.990;2023-02-25T01:11:35;12.02;;;2.30;;
78686;SDS011;68002;52.310;6.990;2023-02-25T01:14:02;7.90;;;2.00;;
78686;SDS011;68002;52.310;6.990;2023-02-25T01:16:33;7.47;;;2.70;;
78686;SDS011;68002;52.310;6.990;2023-02-25T01:19:00;5.95;;;1.77;;
78686;SDS011;68002;52.310;6.990;2023-02-25T01:21:29;8.88;;;1.60;;
78686;SDS011;68002;52.310;6.990;2023-02-25T01:23:58;11.43;;;2.25;;
78686;SDS011;68002;52.310;6.990;2023-02-25T01:26:26;8.85;;;2.97;;
78686;SDS011;68002;52.310;6.990;2023-02-25T01:28:52;12.40;;;2.08;;
78686;SDS011;68002;52.310;6.990;2023-02-25T01:31:18;9.63;;;1.77;;
78686;SDS011;68002;52.310;6.990;2023-02-25T01:33:44;11.05;;;2.28;;
78686;SDS011;68002;52.310;6.990;2023-02-25T01:36:09;9.10;;;2.43;;
78686;SDS011;68002;52.310;6.990;2023-02-25T01:38:35;14.83;;;3.03;;
78686;SDS011;68002;52.310;6.990;2023-02-25T01:41:00;12.50;;;2.27;;
78686;SDS011;68002;52.310;6.990;2023-02-25T01:43:26;11.82;;;2.80;;
78686;SDS011;68002;52.310;6.990;2023-02-25T01:45:52;4.40;;;1.85;;
78686;SDS011;68002;52.310;6.990;2023-02-25T01:48:18;8.57;;;1.50;;
78686;SDS011;68002;52.310;6.990;2023-02-25T01:50:47;8.73;;;2.80;;
78686;SDS011;68002;52.310;6.990;2023-02-25T01:53:17;10.48;;;2.17;;
78686;SDS011;68002;52.310;6.990;2023-02-25T01:55:47;8.02;;;1.80;;
78686;SDS011;68002;52.310;6.990;2023-02-25T01:58:13;11.77;;;2.17;;
78686;SDS011;68002;52.310;6.990;2023-02-25T02:00:39;9.40;;;1.90;;
78686;SDS011;68002;52.310;6.990;2023-02-25T02:03:05;11.05;;;1.85;;
78686;SDS011;68002;52.310;6.990;2023-02-25T02:05:36;9.45;;;1.60;;
78686;SDS011;68002;52.310;6.990;2023-02-25T02:08:11;7.15;;;1.52;;
78686;SDS011;68002;52.310;6.990;2023-02-25T02:10:37;9.20;;;2.50;;
78686;SDS011;68002;52.310;6.990;2023-02-25T02:13:02;6.30;;;3.20;;
78686;SDS011;68002;52.310;6.990;2023-02-25T02:15:27;11.43;;;1.25;;
78686;SDS011;68002;52.310;6.990;2023-02-25T02:20:24;8.15;;;1.98;;
78686;SDS011;68002;52.310;6.990;2023-02-25T02:34:34;9.80;;;2.10;;
78686;SDS011;68002;52.310;6.990;2023-02-25T02:37:25;5.72;;;2.15;;
78686;SDS011;68002;52.310;6.990;2023-02-25T02:45:46;14.60;;;3.00;;
78686;SDS011;68002;52.310;6.990;2023-02-25T02:48:26;16.65;;;3.15;;
78686;SDS011;68002;52.310;6.990;2023-02-25T02:50:57;15.35;;;2.20;;
78686;SDS011;68002;52.310;6.990;2023-02-25T02:53:27;11.15;;;2.42;;
78686;SDS011;68002;52.310;6.990;2023-02-25T02:55:55;14.50;;;2.50;;
78686;SDS011;68002;52.310;6.990;2023-02-25T02:58:26;8.48;;;2.70;;
78686;SDS011;68002;52.310;6.990;2023-02-25T03:00:58;11.82;;;2.28;;
78686;SDS011;68002;52.310;6.990;2023-02-25T03:03:31;10.73;;;1.67;;
78686;SDS011;68002;52.310;6.990;2023-02-25T03:05:57;5.80;;;1.88;;
78686;SDS011;68002;52.310;6.990;2023-02-25T03:08:26;10.10;;;2.60;;
78686;SDS011;68002;52.310;6.990;2023-02-25T03:10:55;13.57;;;4.13;;
78686;SDS011;68002;52.310;6.990;2023-02-25T03:13:20;6.50;;;1.37;;
78686;SDS011;68002;52.310;6.990;2023-02-25T03:15:46;8.38;;;2.67;;
78686;SDS011;68002;52.310;6.990;2023-02-25T03:18:30;10.45;;;2.53;;
78686;SDS011;68002;52.310;6.990;2023-02-25T03:21:01;8.55;;;2.00;;
78686;SDS011;68002;52.310;6.990;2023-02-25T03:23:31;8.93;;;2.10;;
78686;SDS011;68002;52.310;6.990;2023-02-25T03:28:38;12.85;;;2.38;;
78686;SDS011;68002;52.310;6.990;2023-02-25T03:31:18;13.82;;;2.28;;
78686;SDS011;68002;52.310;6.990;2023-02-25T03:36:36;8.80;;;2.22;;
78686;SDS011;68002;52.310;6.990;2023-02-25T03:39:10;10.77;;;2.65;;
78686;SDS011;68002;52.310;6.990;2023-02-25T03:41:39;9.45;;;4.18;;
78686;SDS011;68002;52.310;6.990;2023-02-25T03:44:08;12.88;;;2.83;;
78686;SDS011;68002;52.310;6.990;2023-02-25T03:46:39;13.98;;;2.40;;
78686;SDS011;68002;52.310;6.990;2023-02-25T03:49:07;8.55;;;1.48;;
78686;SDS011;68002;52.310;6.990;2023-02-25T03:51:36;11.00;;;2.53;;
78686;SDS011;68002;52.310;6.990;2023-02-25T03:54:05;11.15;;;2.50;;
78686;SDS011;68002;52.310;6.990;2023-02-25T03:56:38;13.33;;;2.53;;
78686;SDS011;68002;52.310;6.990;2023-02-25T03:59:04;12.15;;;1.42;;
78686;SDS011;68002;52.310;6.990;2023-02-25T04:01:30;6.97;;;2.90;;
78686;SDS011;68002;52.310;6.990;2023-02-25T04:03:55;12.30;;;4.35;;
78686;SDS011;68002;52.310;6.990;2023-02-25T04:06:21;11.17;;;2.57;;
78686;SDS011;68002;52.310;6.990;2023-02-25T04:08:47;14.77;;;3.22;;
78686;SDS011;68002;52.310;6.990;2023-02-25T04:11:13;12.63;;;2.40;;
78686;SDS011;68002;52.310;6.990;2023-02-25T04:13:38;13.68;;;2.55;;
78686;SDS011;68002;52.310;6.990;2023-02-25T04:16:03;7.57;;;3.50;;
78686;SDS011;68002;52.310;6.990;2023-02-25T04:18:29;8.77;;;2.17;;
78686;SDS011;68002;52.310;6.990;2023-02-25T04:20:54;13.17;;;2.93;;
78686;SDS011;68002;52.310;6.990;2023-02-25T04:23:19;8.50;;;2.33;;
78686;SDS011;68002;52.310;6.990;2023-02-25T04:25:45;9.77;;;2.80;;
78686;SDS011;68002;52.310;6.990;2023-02-25T04:28:10;11.17;;;2.40;;
78686;SDS011;68002;52.310;6.990;2023-02-25T04:30:35;13.27;;;2.40;;
78686;SDS011;68002;52.310;6.990;2023-02-25T04:33:01;6.75;;;1.88;;
78686;SDS011;68002;52.310;6.990;2023-02-25T04:35:26;11.90;;;2.47;;
78686;SDS011;68002;52.310;6.990;2023-02-25T04:37:52;11.83;;;3.10;;
78686;SDS011;68002;52.310;6.990;2023-02-25T04:40:19;13.33;;;2.67;;
78686;SDS011;68002;52.310;6.990;2023-02-25T04:42:45;13.95;;;2.60;;
78686;SDS011;68002;52.310;6.990;2023-02-25T04:45:11;10.73;;;2.58;;
78686;SDS011;68002;52.310;6.990;2023-02-25T04:47:37;10.55;;;2.38;;
78686;SDS011;68002;52.310;6.990;2023-02-25T04:50:03;7.72;;;2.10;;
78686;SDS011;68002;52.310;6.990;2023-02-25T04:52:29;11.77;;;2.58;;
78686;SDS011;68002;52.310;6.990;2023-02-25T04:54:54;10.25;;;2.92;;
78686;SDS011;68002;52.310;6.990;2023-02-25T04:57:20;11.80;;;1.77;;
78686;SDS011;68002;52.310;6.990;2023-02-25T04:59:45;13.15;;;2.45;;
78686;SDS011;68002;52.310;6.990;2023-02-25T05:02:11;8.98;;;2.22;;
78686;SDS011;68002;52.310;6.990;2023-02-25T05:04:36;10.73;;;2.10;;
78686;SDS011;68002;52.310;6.990;2023-02-25T05:07:03;14.82;;;2.42;;
78686;SDS011;68002;52.310;6.990;2023-02-25T05:09:29;11.38;;;2.72;;
78686;SDS011;68002;52.310;6.990;2023-02-25T05:11:54;10.40;;;2.20;;
78686;SDS011;68002;52.310;6.990;2023-02-25T05:14:20;14.63;;;2.40;;
78686;SDS011;68002;52.310;6.990;2023-02-25T05:16:45;12.48;;;2.78;;
78686;SDS011;68002;52.310;6.990;2023-02-25T05:19:17;5.65;;;2.35;;
78686;SDS011;68002;52.310;6.990;2023-02-25T05:21:45;11.30;;;2.90;;
78686;SDS011;68002;52.310;6.990;2023-02-25T05:24:10;11.63;;;2.57;;
78686;SDS011;68002;52.310;6.990;2023-02-25T05:26:35;8.20;;;2.63;;
78686;SDS011;68002;52.310;6.990;2023-02-25T05:29:00;7.73;;;2.90;;
78686;SDS011;68002;52.310;6.990;2023-02-25T05:31:26;11.63;;;3.23;;
78686;SDS011;68002;52.310;6.990;2023-02-25T05:33:51;11.30;;;1.93;;
78686;SDS011;68002;52.310;6.990;2023-02-25T05:36:17;6.57;;;2.67;;
78686;SDS011;68002;52.310;6.990;2023-02-25T05:38:42;13.90;;;3.03;;
78686;SDS011;68002;52.310;6.990;2023-02-25T05:41:13;9.35;;;2.05;;
78686;SDS011;68002;52.310;6.990;2023-02-25T05:43:39;14.23;;;3.35;;
78686;SDS011;68002;52.310;6.990;2023-02-25T05:46:04;6.68;;;1.80;;
78686;SDS011;68002;52.310;6.990;2023-02-25T05:48:31;9.88;;;2.05;;
78686;SDS011;68002;52.310;6.990;2023-02-25T05:51:03;11.68;;;2.33;;
78686;SDS011;68002;52.310;6.990;2023-02-25T05:53:34;9.82;;;4.13;;
78686;SDS011;68002;52.310;6.990;2023-02-25T05:56:02;10.87;;;1.90;;
78686;SDS011;68002;52.310;6.990;2023-02-25T05:58:31;13.50;;;2.38;;
78686;SDS011;68002;52.310;6.990;2023-02-25T06:00:56;13.17;;;2.73;;
78686;SDS011;68002;52.310;6.990;2023-02-25T06:03:22;8.40;;;2.23;;
78686;SDS011;68002;52.310;6.990;2023-02-25T06:05:47;9.13;;;2.07;;
78686;SDS011;68002;52.310;6.990;2023-02-25T06:08:12;8.13;;;2.07;;
78686;SDS011;68002;52.310;6.990;2023-02-25T06:10:38;14.27;;;3.00;;
78686;SDS011;68002;52.310;6.990;2023-02-25T06:13:04;10.77;;;2.28;;
78686;SDS011;68002;52.310;6.990;2023-02-25T06:15:30;6.15;;;2.28;;
78686;SDS011;68002;52.310;6.990;2023-02-25T06:17:55;5.27;;;1.93;;
78686;SDS011;68002;52.310;6.990;2023-02-25T06:20:21;7.60;;;1.83;;
78686;SDS011;68002;52.310;6.990;2023-02-25T06:22:46;4.27;;;1.60;;
78686;SDS011;68002;52.310;6.990;2023-02-25T06:25:11;6.57;;;1.50;;
78686;SDS011;68002;52.310;6.990;2023-02-25T06:27:36;5.93;;;2.37;;
78686;SDS011;68002;52.310;6.990;2023-02-25T06:30:02;5.77;;;1.23;;
78686;SDS011;68002;52.310;6.990;2023-02-25T06:32:27;3.22;;;1.20;;
78686;SDS011;68002;52.310;6.990;2023-02-25T06:34:53;6.07;;;2.23;;
78686;SDS011;68002;52.310;6.990;2023-02-25T06:37:18;6.13;;;1.83;;
78686;SDS011;68002;52.310;6.990;2023-02-25T06:39:43;5.77;;;1.87;;
78686;SDS011;68002;52.310;6.990;2023-02-25T06:42:08;4.77;;;1.43;;
78686;SDS011;68002;52.310;6.990;2023-02-25T06:44:34;6.95;;;2.17;;
78686;SDS011;68002;52.310;6.990;2023-02-25T06:46:59;5.67;;;1.97;;
78686;SDS011;68002;52.310;6.990;2023-02-25T06:49:24;9.03;;;2.00;;
78686;SDS011;68002;52.310;6.990;2023-02-25T06:51:50;11.73;;;1.83;;
78686;SDS011;68002;52.310;6.990;2023-02-25T06:54:15;9.47;;;3.00;;
78686;SDS011;68002;52.310;6.990;2023-02-25T06:56:41;9.02;;;2.08;;
78686;SDS011;68002;52.310;6.990;2023-02-25T06:59:06;6.87;;;2.47;;
78686;SDS011;68002;52.310;6.990;2023-02-25T07:01:32;9.88;;;2.05;;
78686;SDS011;68002;52.310;6.990;2023-02-25T07:03:57;7.17;;;2.67;;
78686;SDS011;68002;52.310;6.990;2023-02-25T07:06:23;12.73;;;2.37;;
78686;SDS011;68002;52.310;6.990;2023-02-25T07:08:48;9.30;;;2.27;;
78686;SDS011;68002;52.310;6.990;2023-02-25T07:13:42;9.20;;;2.35;;
78686;SDS011;68002;52.310;6.990;2023-02-25T07:16:08;6.07;;;2.72;;
78686;SDS011;68002;52.310;6.990;2023-02-25T07:18:35;5.53;;;1.63;;
78686;SDS011;68002;52.310;6.990;2023-02-25T07:21:00;7.47;;;0.87;;
78686;SDS011;68002;52.310;6.990;2023-02-25T07:23:25;5.90;;;1.97;;
78686;SDS011;68002;52.310;6.990;2023-02-25T07:25:50;6.57;;;1.57;;
78686;SDS011;68002;52.310;6.990;2023-02-25T07:28:15;3.33;;;1.27;;
78686;SDS011;68002;52.310;6.990;2023-02-25T07:30:41;4.37;;;2.60;;
78686;SDS011;68002;52.310;6.990;2023-02-25T07:33:06;3.80;;;1.30;;
78686;SDS011;68002;52.310;6.990;2023-02-25T07:35:31;3.53;;;1.10;;
78686;SDS011;68002;52.310;6.990;2023-02-25T07:37:57;2.80;;;0.63;;
78686;SDS011;68002;52.310;6.990;2023-02-25T07:40:22;2.50;;;1.23;;
78686;SDS011;68002;52.310;6.990;2023-02-25T07:42:48;5.73;;;1.50;;
78686;SDS011;68002;52.310;6.990;2023-02-25T07:45:13;2.80;;;1.27;;
78686;SDS011;68002;52.310;6.990;2023-02-25T07:47:38;2.93;;;1.47;;
78686;SDS011;68002;52.310;6.990;2023-02-25T07:50:04;4.47;;;1.47;;
78686;SDS011;68002;52.310;6.990;2023-02-25T07:52:30;6.35;;;1.50;;
78686;SDS011;68002;52.310;6.990;2023-02-25T07:54:55;3.80;;;1.53;;
78686;SDS011;68002;52.310;6.990;2023-02-25T07:57:20;3.10;;;1.00;;
78686;SDS011;68002;52.310;6.990;2023-02-25T07:59:46;1.63;;;1.03;;
78686;SDS011;68002;52.310;6.990;2023-02-25T08:02:11;2.43;;;1.33;;
78686;SDS011;68002;52.310;6.990;2023-02-25T08:04:36;3.37;;;1.47;;
78686;SDS011;68002;52.310;6.990;2023-02-25T08:07:01;2.83;;;1.23;;
78686;SDS011;68002;52.310;6.990;2023-02-25T08:09:27;5.23;;;1.40;;
78686;SDS011;68002;52.310;6.990;2023-02-25T08:11:52;3.17;;;1.30;;
78686;SDS011;68002;52.310;6.990;2023-02-25T08:14:17;3.87;;;1.80;;
78686;SDS011;68002;52.310;6.990;2023-02-25T08:16:42;2.60;;;1.67;;
78686;SDS011;68002;52.310;6.990;2023-02-25T08:19:07;2.63;;;1.37;;
78686;SDS011;68002;52.310;6.990;2023-02-25T08:21:33;2.40;;;1.57;;
78686;SDS011;68002;52.310;6.990;2023-02-25T08:23:58;3.72;;;1.40;;
78686;SDS011;68002;52.310;6.990;2023-02-25T08:26:23;5.60;;;1.73;;
78686;SDS011;68002;52.310;6.990;2023-02-25T08:28:49;4.60;;;1.85;;
78686;SDS011;68002;52.310;6.990;2023-02-25T08:31:15;6.72;;;2.08;;
78686;SDS011;68002;52.310;6.990;2023-02-25T08:33:43;5.05;;;0.77;;
78686;SDS011;68002;52.310;6.990;2023-02-25T08:36:11;6.95;;;1.73;;
78686;SDS011;68002;52.310;6.990;2023-02-25T08:38:39;3.85;;;1.70;;
78686;SDS011;68002;52.310;6.990;2023-02-25T08:41:04;4.37;;;1.70;;
78686;SDS011;68002;52.310;6.990;2023-02-25T08:43:31;5.25;;;1.88;;
78686;SDS011;68002;52.310;6.990;2023-02-25T08:45:57;4.45;;;1.65;;
78686;SDS011;68002;52.310;6.990;2023-02-25T08:48:22;5.73;;;1.93;;
78686;SDS011;68002;52.310;6.990;2023-02-25T08:50:48;3.00;;;1.43;;
78686;SDS011;68002;52.310;6.990;2023-02-25T08:53:13;4.07;;;1.93;;
78686;SDS011;68002;52.310;6.990;2023-02-25T08:55:38;2.63;;;1.40;;
78686;SDS011;68002;52.310;6.990;2023-02-25T08:58:03;3.17;;;1.10;;
78686;SDS011;68002;52.310;6.990;2023-02-25T09:00:29;3.05;;;1.17;;
78686;SDS011;68002;52.310;6.990;2023-02-25T09:02:54;2.50;;;1.33;;
78686;SDS011;68002;52.310;6.990;2023-02-25T09:05:19;3.53;;;1.73;;
78686;SDS011;68002;52.310;6.990;2023-02-25T09:07:44;3.43;;;1.37;;
78686;SDS011;68002;52.310;6.990;2023-02-25T09:10:10;4.83;;;1.23;;
78686;SDS011;68002;52.310;6.990;2023-02-25T09:12:35;4.35;;;1.65;;
78686;SDS011;68002;52.310;6.990;2023-02-25T09:15:01;3.10;;;1.20;;
78686;SDS011;68002;52.310;6.990;2023-02-25T09:17:26;3.30;;;1.35;;
78686;SDS011;68002;52.310;6.990;2023-02-25T09:19:52;3.97;;;1.90;;
78686;SDS011;68002;52.310;6.990;2023-02-25T09:22:17;3.17;;;2.43;;
78686;SDS011;68002;52.310;6.990;2023-02-25T09:24:42;2.83;;;1.03;;
78686;SDS011;68002;52.310;6.990;2023-02-25T09:27:07;3.57;;;0.70;;
78686;SDS011;68002;52.310;6.990;2023-02-25T09:29:33;4.30;;;2.20;;
78686;SDS011;68002;52.310;6.990;2023-02-25T09:31:59;4.82;;;2.05;;
78686;SDS011;68002;52.310;6.990;2023-02-25T09:34:24;5.97;;;1.80;;
78686;SDS011;68002;52.310;6.990;2023-02-25T09:36:49;4.70;;;1.50;;
78686;SDS011;68002;52.310;6.990;2023-02-25T09:39:14;6.73;;;1.50;;
78686;SDS011;68002;52.310;6.990;2023-02-25T09:41:42;5.27;;;1.40;;
78686;SDS011;68002;52.310;6.990;2023-02-25T09:44:45;3.72;;;1.17;;
78686;SDS011;68002;52.310;6.990;2023-02-25T09:47:22;2.88;;;1.45;;
78686;SDS011;68002;52.310;6.990;2023-02-25T09:49:55;3.83;;;1.10;;
78686;SDS011;68002;52.310;6.990;2023-02-25T09:52:46;6.05;;;1.70;;
78686;SDS011;68002;52.310;6.990;2023-02-25T09:57:56;4.40;;;1.70;;
78686;SDS011;68002;52.310;6.990;2023-02-25T10:02:58;6.60;;;1.98;;
78686;SDS011;68002;52.310;6.990;2023-02-25T10:05:45;5.35;;;2.10;;
78686;SDS011;68002;52.310;6.990;2023-02-25T10:10:59;4.63;;;1.20;;
78686;SDS011;68002;52.310;6.990;2023-02-25T10:16:04;3.25;;;2.03;;
78686;SDS011;68002;52.310;6.990;2023-02-25T10:21:20;5.35;;;1.73;;
78686;SDS011;68002;52.310;6.990;2023-02-25T10:26:48;4.90;;;1.35;;
78686;SDS011;68002;52.310;6.990;2023-02-25T10:29:22;2.95;;;1.05;;
78686;SDS011;68002;52.310;6.990;2023-02-25T10:31:51;7.70;;;1.52;;
78686;SDS011;68002;52.310;6.990;2023-02-25T10:34:22;5.22;;;1.45;;
78686;SDS011;68002;52.310;6.990;2023-02-25T10:36:57;4.13;;;1.35;;
78686;SDS011;68002;52.310;6.990;2023-02-25T10:39:24;6.45;;;3.08;;
78686;SDS011;68002;52.310;6.990;2023-02-25T10:41:51;5.93;;;1.73;;
78686;SDS011;68002;52.310;6.990;2023-02-25T10:44:16;4.07;;;1.15;;
78686;SDS011;68002;52.310;6.990;2023-02-25T10:47:00;3.40;;;1.13;;
78686;SDS011;68002;52.310;6.990;2023-02-25T10:49:28;4.43;;;1.10;;
78686;SDS011;68002;52.310;6.990;2023-02-25T10:52:02;5.53;;;1.40;;
78686;SDS011;68002;52.310;6.990;2023-02-25T10:54:46;6.47;;;2.03;;
78686;SDS011;68002;52.310;6.990;2023-02-25T10:57:27;3.92;;;1.73;;
78686;SDS011;68002;52.310;6.990;2023-02-25T11:00:14;5.20;;;1.63;;
78686;SDS011;68002;52.310;6.990;2023-02-25T11:02:49;3.30;;;2.03;;
78686;SDS011;68002;52.310;6.990;2023-02-25T11:08:30;6.18;;;1.85;;
78686;SDS011;68002;52.310;6.990;2023-02-25T11:11:01;4.72;;;1.25;;
78686;SDS011;68002;52.310;6.990;2023-02-25T11:13:39;4.00;;;1.15;;
78686;SDS011;68002;52.310;6.990;2023-02-25T11:16:05;2.90;;;0.63;;
78686;SDS011;68002;52.310;6.990;2023-02-25T11:18:32;3.15;;;1.73;;
78686;SDS011;68002;52.310;6.990;2023-02-25T11:21:00;3.55;;;1.20;;
78686;SDS011;68002;52.310;6.990;2023-02-25T11:23:31;3.15;;;0.68;;
78686;SDS011;68002;52.310;6.990;2023-02-25T11:26:02;2.60;;;1.33;;
78686;SDS011;68002;52.310;6.990;2023-02-25T11:31:09;3.63;;;1.15;;
78686;SDS011;68002;52.310;6.990;2023-02-25T11:33:42;3.33;;;1.80;;
78686;SDS011;68002;52.310;6.990;2023-02-25T11:36:18;3.55;;;1.90;;
78686;SDS011;68002;52.310;6.990;2023-02-25T11:38:45;2.83;;;1.30;;
78686;SDS011;68002;52.310;6.990;2023-02-25T11:41:14;5.80;;;1.33;;
78686;SDS011;68002;52.310;6.990;2023-02-25T11:43:41;3.85;;;1.17;;
78686;SDS011;68002;52.310;6.990;2023-02-25T11:46:09;3.83;;;1.45;;
78686;SDS011;68002;52.310;6.990;2023-02-25T11:48:45;3.38;;;1.52;;
78686;SDS011;68002;52.310;6.990;2023-02-25T11:51:18;3.70;;;1.42;;
78686;SDS011;68002;52.310;6.990;2023-02-25T11:56:41;3.95;;;1.30;;
78686;SDS011;68002;52.310;6.990;2023-02-25T12:04:47;1.08;;;0.50;;
78686;SDS011;68002;52.310;6.990;2023-02-25T12:24:39;2.53;;;1.27;;
78686;SDS011;68002;52.310;6.990;2023-02-25T12:51:14;4.32;;;1.85;;
78686;SDS011;68002;52.310;6.990;2023-02-25T13:07:39;2.88;;;1.17;;
78686;SDS011;68002;52.310;6.990;2023-02-25T13:13:01;3.60;;;1.33;;
78686;SDS011;68002;52.310;6.990;2023-02-25T13:18:37;3.22;;;0.95;;
78686;SDS011;68002;52.310;6.990;2023-02-25T13:26:43;2.33;;;0.40;;
78686;SDS011;68002;52.310;6.990;2023-02-25T13:29:23;3.47;;;1.33;;
78686;SDS011;68002;52.310;6.990;2023-02-25T13:34:43;2.88;;;1.05;;
78686;SDS011;68002;52.310;6.990;2023-02-25T13:37:31;1.85;;;1.20;;
78686;SDS011;68002;52.310;6.990;2023-02-25T13:54:28;4.45;;;0.75;;
78686;SDS011;68002;52.310;6.990;2023-02-25T13:57:09;2.30;;;1.05;;
78686;SDS011;68002;52.310;6.990;2023-02-25T14:00:50;4.60;;;1.30;;
78686;SDS011;68002;52.310;6.990;2023-02-25T14:15:48;1.60;;;0.95;;
78686;SDS011;68002;52.310;6.990;2023-02-25T14:23:21;3.53;;;1.77;;
78686;SDS011;68002;52.310;6.990;2023-02-25T14:28:28;3.25;;;1.00;;
78686;SDS011;68002;52.310;6.990;2023-02-25T14:31:26;4.38;;;1.02;;
78686;SDS011;68002;52.310;6.990;2023-02-25T14:36:50;2.28;;;0.60;;
78686;SDS011;68002;52.310;6.990;2023-02-25T14:45:17;2.67;;;1.20;;
78686;SDS011;68002;52.310;6.990;2023-02-25T14:47:53;1.92;;;0.95;;
78686;SDS011;68002;52.310;6.990;2023-02-25T14:58:19;2.90;;;1.05;;
78686;SDS011;68002;52.310;6.990;2023-02-25T15:06:25;2.45;;;1.45;;
78686;SDS011;68002;52.310;6.990;2023-02-25T15:20:34;2.15;;;1.13;;
78686;SDS011;68002;52.310;6.990;2023-02-25T15:33:35;2.33;;;1.00;;
78686;SDS011;68002;52.310;6.990;2023-02-25T15:38:46;2.60;;;1.27;;
78686;SDS011;68002;52.310;6.990;2023-02-25T15:43:51;5.57;;;3.03;;
78686;SDS011;68002;52.310;6.990;2023-02-25T15:46:24;3.05;;;1.55;;
78686;SDS011;68002;52.310;6.990;2023-02-25T15:51:44;2.65;;;0.50;;
78686;SDS011;68002;52.310;6.990;2023-02-25T15:56:53;1.58;;;1.40;;
78686;SDS011;68002;52.310;6.990;2023-02-25T15:59:40;3.25;;;0.90;;
78686;SDS011;68002;52.310;6.990;2023-02-25T16:07:28;3.50;;;1.48;;
78686;SDS011;68002;52.310;6.990;2023-02-25T16:09:57;1.80;;;0.47;;
78686;SDS011;68002;52.310;6.990;2023-02-25T16:12:26;3.33;;;1.23;;
78686;SDS011;68002;52.310;6.990;2023-02-25T16:14:52;4.40;;;1.45;;
78686;SDS011;68002;52.310;6.990;2023-02-25T16:17:33;5.00;;;1.67;;
78686;SDS011;68002;52.310;6.990;2023-02-25T16:20:13;3.30;;;1.52;;
78686;SDS011;68002;52.310;6.990;2023-02-25T16:22:43;4.18;;;1.55;;
78686;SDS011;68002;52.310;6.990;2023-02-25T16:25:14;2.50;;;1.15;;
78686;SDS011;68002;52.310;6.990;2023-02-25T16:43:09;2.67;;;0.68;;
78686;SDS011;68002;52.310;6.990;2023-02-25T16:45:40;2.95;;;1.60;;
78686;SDS011;68002;52.310;6.990;2023-02-25T16:48:15;2.42;;;1.23;;
78686;SDS011;68002;52.310;6.990;2023-02-25T16:50:46;3.83;;;1.70;;
78686;SDS011;68002;52.310;6.990;2023-02-25T16:53:23;3.30;;;1.95;;
78686;SDS011;68002;52.310;6.990;2023-02-25T16:55:50;3.45;;;1.63;;
78686;SDS011;68002;52.310;6.990;2023-02-25T16:58:23;3.33;;;1.77;;
78686;SDS011;68002;52.310;6.990;2023-02-25T17:03:20;1.90;;;1.10;;
78686;SDS011;68002;52.310;6.990;2023-02-25T17:06:04;3.05;;;1.52;;
78686;SDS011;68002;52.310;6.990;2023-02-25T17:08:32;4.72;;;1.77;;
78686;SDS011;68002;52.310;6.990;2023-02-25T17:10:58;5.72;;;1.63;;
78686;SDS011;68002;52.310;6.990;2023-02-25T17:13:26;1.77;;;0.75;;
78686;SDS011;68002;52.310;6.990;2023-02-25T17:15:55;3.25;;;1.58;;
78686;SDS011;68002;52.310;6.990;2023-02-25T17:18:28;3.90;;;0.50;;
78686;SDS011;68002;52.310;6.990;2023-02-25T17:23:53;4.57;;;2.38;;
78686;SDS011;68002;52.310;6.990;2023-02-25T17:26:22;4.75;;;1.15;;
78686;SDS011;68002;52.310;6.990;2023-02-25T17:28:48;5.85;;;1.88;;
78686;SDS011;68002;52.310;6.990;2023-02-25T17:31:18;4.95;;;1.67;;
78686;SDS011;68002;52.310;6.990;2023-02-25T17:33:47;2.55;;;0.80;;
78686;SDS011;68002;52.310;6.990;2023-02-25T17:36:22;2.08;;;1.42;;
78686;SDS011;68002;52.310;6.990;2023-02-25T17:39:12;5.32;;;1.90;;
78686;SDS011;68002;52.310;6.990;2023-02-25T17:41:39;3.88;;;1.27;;
78686;SDS011;68002;52.310;6.990;2023-02-25T17:44:41;3.20;;;1.75;;
78686;SDS011;68002;52.310;6.990;2023-02-25T17:47:02;4.65;;;1.52;;
78686;SDS011;68002;52.310;6.990;2023-02-25T17:49:31;4.15;;;1.67;;
78686;SDS011;68002;52.310;6.990;2023-02-25T17:54:28;11.57;;;1.63;;
78686;SDS011;68002;52.310;6.990;2023-02-25T17:56:57;4.68;;;2.15;;
78686;SDS011;68002;52.310;6.990;2023-02-25T18:01:55;3.45;;;2.08;;
78686;SDS011;68002;52.310;6.990;2023-02-25T18:04:35;3.17;;;1.58;;
78686;SDS011;68002;52.310;6.990;2023-02-25T18:07:27;5.25;;;2.42;;
78686;SDS011;68002;52.310;6.990;2023-02-25T18:09:54;5.00;;;1.15;;
78686;SDS011;68002;52.310;6.990;2023-02-25T18:12:28;3.65;;;2.30;;
78686;SDS011;68002;52.310;6.990;2023-02-25T18:14:58;4.50;;;1.40;;
78686;SDS011;68002;52.310;6.990;2023-02-25T18:17:46;8.75;;;3.28;;
78686;SDS011;68002;52.310;6.990;2023-02-25T18:20:26;3.70;;;0.85;;
78686;SDS011;68002;52.310;6.990;2023-02-25T18:25:38;3.72;;;1.73;;
78686;SDS011;68002;52.310;6.990;2023-02-25T18:28:06;3.92;;;1.95;;
78686;SDS011;68002;52.310;6.990;2023-02-25T18:30:36;3.28;;;1.60;;
78686;SDS011;68002;52.310;6.990;2023-02-25T18:33:01;3.03;;;1.47;;
78686;SDS011;68002;52.310;6.990;2023-02-25T18:35:27;3.10;;;1.87;;
78686;SDS011;68002;52.310;6.990;2023-02-25T18:37:54;2.53;;;1.45;;
78686;SDS011;68002;52.310;6.990;2023-02-25T18:40:26;4.15;;;1.38;;
78686;SDS011;68002;52.310;6.990;2023-02-25T18:42:57;3.25;;;1.42;;
78686;SDS011;68002;52.310;6.990;2023-02-25T18:45:24;3.50;;;1.30;;
78686;SDS011;68002;52.310;6.990;2023-02-25T18:47:51;2.70;;;1.25;;
78686;SDS011;68002;52.310;6.990;2023-02-25T18:50:17;3.28;;;1.48;;
78686;SDS011;68002;52.310;6.990;2023-02-25T18:52:43;3.45;;;0.75;;
78686;SDS011;68002;52.310;6.990;2023-02-25T18:55:14;2.17;;;1.50;;
78686;SDS011;68002;52.310;6.990;2023-02-25T18:57:42;2.55;;;1.75;;
78686;SDS011;68002;52.310;6.990;2023-02-25T19:00:07;2.83;;;1.33;;
78686;SDS011;68002;52.310;6.990;2023-02-25T19:02:34;3.67;;;1.58;;
78686;SDS011;68002;52.310;6.990;2023-02-25T19:05:07;2.20;;;1.55;;
78686;SDS011;68002;52.310;6.990;2023-02-25T19:07:33;3.27;;;1.10;;